Amarant — CQSF — position and weather

sailwx.info

Track history (hours):
 
Tides and Currents Weather Stations Pressure Air Temp Water Temp Dewpoint Dewpoint Depression Visibility Wind Speed Wind Dir Waves Ship Positions

Amarant

Last reported at 2014-Oct-24 09:32 UTC. Time now 2014-Oct-24 10:26 UTC.
Position N 51°15' E 004°22'.

Length 120 m; draft 7.2 m.

Type: Tanker. MMSI: 255623000.

Date/timePositionNaut miles runAvg speedWind from/ knotsBaromVisibWave heightAir tempDewpointWater temp
2014-Oct-24 09:32N 51°15' E 004°22'0 0.0
2014-Oct-24 08:32N 51°15' E 004°22'0 0.0
2014-Oct-24 07:32N 51°15' E 004°22'0 0.0
2014-Oct-24 06:32N 51°15' E 004°22'0 0.3
2014-Oct-24 05:32N 51°15' E 004°22'0 0.0
2014-Oct-24 04:32N 51°15' E 004°22'0 0.0
2014-Oct-24 03:31N 51°15' E 004°22'0 0.0
2014-Oct-24 02:31N 51°15' E 004°22'0 0.0
2014-Oct-24 01:31N 51°15' E 004°22'0 0.0
2014-Oct-24 00:28N 51°15' E 004°22'0 0.0
2014-Oct-23 23:31N 51°15' E 004°22'0 0.0
2014-Oct-23 22:31N 51°15' E 004°22'0 0.0
2014-Oct-23 21:31N 51°15' E 004°22'0 0.0
2014-Oct-23 20:31N 51°15' E 004°22'0 0.0
2014-Oct-23 19:31N 51°15' E 004°22'0 0.0
2014-Oct-23 18:31N 51°15' E 004°22'0 0.0
2014-Oct-23 17:31N 51°15' E 004°22'0 0.0
2014-Oct-23 16:28N 51°15' E 004°22'0 0.0
2014-Oct-23 15:28N 51°15' E 004°22'0 0.0
2014-Oct-23 14:31N 51°15' E 004°22'0 0.0
2014-Oct-23 13:31N 51°15' E 004°22'0 0.0
2014-Oct-23 12:31N 51°15' E 004°22'0 0.0
2014-Oct-23 11:31N 51°15' E 004°22'0 0.0
2014-Oct-23 10:31N 51°15' E 004°22'0 0.0
2014-Oct-23 09:31N 51°15' E 004°22'0 0.0
2014-Oct-23 08:31N 51°15' E 004°22'0 0.0
2014-Oct-23 07:31N 51°15' E 004°22'0 0.0
2014-Oct-23 06:31N 51°15' E 004°22'0 0.0
2014-Oct-23 05:31N 51°15' E 004°22'0 0.0
2014-Oct-23 04:31N 51°15' E 004°22'0 0.0
2014-Oct-23 03:31N 51°15' E 004°22'0 0.0
2014-Oct-23 02:31N 51°15' E 004°22'0 0.0
2014-Oct-23 01:31N 51°15' E 004°22'0 0.0
2014-Oct-23 00:31N 51°15' E 004°22'0 0.0
2014-Oct-22 23:31N 51°15' E 004°22'0 0.0
2014-Oct-22 22:31N 51°15' E 004°22'0 0.0
2014-Oct-22 21:31N 51°15' E 004°22'0 0.0
2014-Oct-22 20:31N 51°15' E 004°22'0 0.0
2014-Oct-22 19:31N 51°15' E 004°22'0 0.0
2014-Oct-22 18:31N 51°15' E 004°22'0 0.4
2014-Oct-22 17:33N 51°15' E 004°22'6 6.2
2014-Oct-22 16:34N 51°21' E 004°17'1 1.0
2014-Oct-22 15:33N 51°21' E 004°16'4 4.1
2014-Oct-22 14:33N 51°23' E 004°10'5 5.1
2014-Oct-22 13:33N 51°23' E 004°02'5 4.9
2014-Oct-22 12:31N 51°22' E 003°54'8 8.0
2014-Oct-22 11:33N 51°24' E 003°43'7 7.4
2014-Oct-22 10:33N 51°25' E 003°31'7 6.8
2014-Oct-22 09:33N 51°24' E 003°20'8 7.7
2014-Oct-22 08:32N 51°24' E 003°07'7 7.0
2014-Oct-22 07:33N 51°30' E 003°04'1212.0
2014-Oct-22 06:33N 51°41' E 003°12'91 9.0
2014-Oct-21 20:29N 53°04' E 004°14'8 8.0
2014-Oct-21 19:33N 53°09' E 004°23'9 9.3
2014-Oct-21 18:33N 53°18' E 004°28'44 8.3
2014-Oct-21 13:17N 53°59' E 004°50'7 8.6
2014-Oct-21 12:31N 54°06' E 004°53'12 8.2
2014-Oct-21 11:05N 54°16' E 005°02'8210.8
2014-Oct-21 03:32N 55°26' E 006°16'1211.9
2014-Oct-21 02:33N 55°36' E 006°27'177 9.3
2014-Oct-20 07:33N 57°43' E 010°08'9 9.2
2014-Oct-20 06:33N 57°47' E 010°24'9 9.1
2014-Oct-20 05:33N 57°48' E 010°41'9 9.3
2014-Oct-20 04:33N 57°45' E 010°57'1211.6
2014-Oct-20 03:33N 57°36' E 011°12'1312.6
2014-Oct-20 02:33N 57°26' E 011°27'1613.5
2014-Oct-20 01:23N 57°12' E 011°37'1113.4
2014-Oct-20 00:33N 57°01' E 011°44'1413.7
2014-Oct-19 23:33N 56°48' E 011°52'1313.3
2014-Oct-19 22:32N 56°35' E 011°58'1212.4
2014-Oct-19 21:33N 56°24' E 012°08'1312.8
2014-Oct-19 20:33N 56°14' E 012°23'1212.2
2014-Oct-19 19:33N 56°05' E 012°37'1211.6
2014-Oct-19 18:33N 55°54' E 012°45'1212.5
2014-Oct-19 17:33N 55°42' E 012°41'9 9.4
2014-Oct-19 16:33N 55°33' E 012°43'1211.9
2014-Oct-19 15:33N 55°21' E 012°40'1111.2
2014-Oct-19 14:33N 55°16' E 012°58'1312.1
2014-Oct-19 13:30N 55°15' E 013°20'1111.7
2014-Oct-19 12:33N 55°15' E 013°39'1212.3
2014-Oct-19 11:33N 55°14' E 014°01'1111.5
2014-Oct-19 10:33N 55°17' E 014°20'1513.0
2014-Oct-19 09:22N 55°28' E 014°39'1213.1
2014-Oct-19 08:28N 55°34' E 014°57'2312.0
2014-Oct-19 06:33N 55°46' E 015°32'1211.6
2014-Oct-19 05:30N 55°52' E 015°51'1111.2
2014-Oct-19 04:33N 55°57' E 016°08'1111.0
2014-Oct-19 03:33N 56°03' E 016°25'  
2014-Oct-15 05:32N 55°36' E 015°17'1212.8
2014-Oct-15 04:34N 55°30' E 014°57'1312.7
2014-Oct-15 03:34N 55°23' E 014°38'1312.6
2014-Oct-15 02:34N 55°14' E 014°24'4912.0
2014-Oct-14 22:31N 55°13' E 012°59'1212.2
2014-Oct-14 21:33N 55°18' E 012°39'1211.6
2014-Oct-14 20:34N 55°29' E 012°41'10 9.8
2014-Oct-14 19:33N 55°39' E 012°41'1212.0
2014-Oct-14 18:33N 55°51' E 012°41'1212.3
2014-Oct-14 17:33N 56°03' E 012°39'1212.2
2014-Oct-14 16:33N 56°11' E 012°22'1413.5
2014-Oct-14 15:33N 56°24' E 012°16'1413.5
2014-Oct-14 14:33N 56°37' E 012°10'1313.4
2014-Oct-14 13:33N 56°50' E 012°03'1413.5
2014-Oct-14 12:33N 57°03' E 011°57'1413.6
2014-Oct-14 11:30N 57°17' E 011°49'1313.5
2014-Oct-14 10:33N 57°29' E 011°41'1111.1
2014-Oct-14 09:33N 57°40' E 011°46'  
Track history (hours):
 
Tides and Currents Weather Stations Pressure Air Temp Water Temp Dewpoint Dewpoint Depression Visibility Wind Speed Wind Dir Waves Ship Positions

Amarant

Last reported at 2014-Oct-24 09:32 UTC. Time now 2014-Oct-24 10:26 UTC.
Position N 51°15' E 004°22'.

Length 120 m; draft 7.2 m.

Type: Tanker. MMSI: 255623000.

Date/timePositionNaut miles runAvg speedWind from/ knotsBaromVisibWave heightAir tempDewpointWater temp
2014-Oct-24 09:32N 51°15' E 004°22'0 0.0
2014-Oct-24 08:32N 51°15' E 004°22'0 0.0
2014-Oct-24 07:32N 51°15' E 004°22'0 0.0
2014-Oct-24 06:32N 51°15' E 004°22'0 0.3
2014-Oct-24 05:32N 51°15' E 004°22'0 0.0
2014-Oct-24 04:32N 51°15' E 004°22'0 0.0
2014-Oct-24 03:31N 51°15' E 004°22'0 0.0
2014-Oct-24 02:31N 51°15' E 004°22'0 0.0
2014-Oct-24 01:31N 51°15' E 004°22'0 0.0
2014-Oct-24 00:28N 51°15' E 004°22'0 0.0
2014-Oct-23 23:31N 51°15' E 004°22'0 0.0
2014-Oct-23 22:31N 51°15' E 004°22'0 0.0
2014-Oct-23 21:31N 51°15' E 004°22'0 0.0
2014-Oct-23 20:31N 51°15' E 004°22'0 0.0
2014-Oct-23 19:31N 51°15' E 004°22'0 0.0
2014-Oct-23 18:31N 51°15' E 004°22'0 0.0
2014-Oct-23 17:31N 51°15' E 004°22'0 0.0
2014-Oct-23 16:28N 51°15' E 004°22'0 0.0
2014-Oct-23 15:28N 51°15' E 004°22'0 0.0
2014-Oct-23 14:31N 51°15' E 004°22'0 0.0
2014-Oct-23 13:31N 51°15' E 004°22'0 0.0
2014-Oct-23 12:31N 51°15' E 004°22'0 0.0
2014-Oct-23 11:31N 51°15' E 004°22'0 0.0
2014-Oct-23 10:31N 51°15' E 004°22'0 0.0
2014-Oct-23 09:31N 51°15' E 004°22'0 0.0
2014-Oct-23 08:31N 51°15' E 004°22'0 0.0
2014-Oct-23 07:31N 51°15' E 004°22'0 0.0
2014-Oct-23 06:31N 51°15' E 004°22'0 0.0
2014-Oct-23 05:31N 51°15' E 004°22'0 0.0
2014-Oct-23 04:31N 51°15' E 004°22'0 0.0
2014-Oct-23 03:31N 51°15' E 004°22'0 0.0
2014-Oct-23 02:31N 51°15' E 004°22'0 0.0
2014-Oct-23 01:31N 51°15' E 004°22'0 0.0
2014-Oct-23 00:31N 51°15' E 004°22'0 0.0
2014-Oct-22 23:31N 51°15' E 004°22'0 0.0
2014-Oct-22 22:31N 51°15' E 004°22'0 0.0
2014-Oct-22 21:31N 51°15' E 004°22'0 0.0
2014-Oct-22 20:31N 51°15' E 004°22'0 0.0
2014-Oct-22 19:31N 51°15' E 004°22'0 0.0
2014-Oct-22 18:31N 51°15' E 004°22'0 0.4
2014-Oct-22 17:33N 51°15' E 004°22'6 6.2
2014-Oct-22 16:34N 51°21' E 004°17'1 1.0
2014-Oct-22 15:33N 51°21' E 004°16'4 4.1
2014-Oct-22 14:33N 51°23' E 004°10'5 5.1
2014-Oct-22 13:33N 51°23' E 004°02'5 4.9
2014-Oct-22 12:31N 51°22' E 003°54'8 8.0
2014-Oct-22 11:33N 51°24' E 003°43'7 7.4
2014-Oct-22 10:33N 51°25' E 003°31'7 6.8
2014-Oct-22 09:33N 51°24' E 003°20'8 7.7
2014-Oct-22 08:32N 51°24' E 003°07'7 7.0
2014-Oct-22 07:33N 51°30' E 003°04'1212.0
2014-Oct-22 06:33N 51°41' E 003°12'91 9.0
2014-Oct-21 20:29N 53°04' E 004°14'8 8.0
2014-Oct-21 19:33N 53°09' E 004°23'9 9.3
2014-Oct-21 18:33N 53°18' E 004°28'44 8.3
2014-Oct-21 13:17N 53°59' E 004°50'7 8.6
2014-Oct-21 12:31N 54°06' E 004°53'12 8.2
2014-Oct-21 11:05N 54°16' E 005°02'8210.8
2014-Oct-21 03:32N 55°26' E 006°16'1211.9
2014-Oct-21 02:33N 55°36' E 006°27'177 9.3
2014-Oct-20 07:33N 57°43' E 010°08'9 9.2
2014-Oct-20 06:33N 57°47' E 010°24'9 9.1
2014-Oct-20 05:33N 57°48' E 010°41'9 9.3
2014-Oct-20 04:33N 57°45' E 010°57'1211.6
2014-Oct-20 03:33N 57°36' E 011°12'1312.6
2014-Oct-20 02:33N 57°26' E 011°27'1613.5
2014-Oct-20 01:23N 57°12' E 011°37'1113.4
2014-Oct-20 00:33N 57°01' E 011°44'1413.7
2014-Oct-19 23:33N 56°48' E 011°52'1313.3
2014-Oct-19 22:32N 56°35' E 011°58'1212.4
2014-Oct-19 21:33N 56°24' E 012°08'1312.8
2014-Oct-19 20:33N 56°14' E 012°23'1212.2
2014-Oct-19 19:33N 56°05' E 012°37'1211.6
2014-Oct-19 18:33N 55°54' E 012°45'1212.5
2014-Oct-19 17:33N 55°42' E 012°41'9 9.4
2014-Oct-19 16:33N 55°33' E 012°43'1211.9
2014-Oct-19 15:33N 55°21' E 012°40'1111.2
2014-Oct-19 14:33N 55°16' E 012°58'1312.1
2014-Oct-19 13:30N 55°15' E 013°20'1111.7
2014-Oct-19 12:33N 55°15' E 013°39'1212.3
2014-Oct-19 11:33N 55°14' E 014°01'1111.5
2014-Oct-19 10:33N 55°17' E 014°20'1513.0
2014-Oct-19 09:22N 55°28' E 014°39'1213.1
2014-Oct-19 08:28N 55°34' E 014°57'2312.0
2014-Oct-19 06:33N 55°46' E 015°32'1211.6
2014-Oct-19 05:30N 55°52' E 015°51'1111.2
2014-Oct-19 04:33N 55°57' E 016°08'1111.0
2014-Oct-19 03:33N 56°03' E 016°25'  
2014-Oct-15 05:32N 55°36' E 015°17'1212.8
2014-Oct-15 04:34N 55°30' E 014°57'1312.7
2014-Oct-15 03:34N 55°23' E 014°38'1312.6
2014-Oct-15 02:34N 55°14' E 014°24'4912.0
2014-Oct-14 22:31N 55°13' E 012°59'1212.2
2014-Oct-14 21:33N 55°18' E 012°39'1211.6
2014-Oct-14 20:34N 55°29' E 012°41'10 9.8
2014-Oct-14 19:33N 55°39' E 012°41'1212.0
2014-Oct-14 18:33N 55°51' E 012°41'1212.3
2014-Oct-14 17:33N 56°03' E 012°39'1212.2
2014-Oct-14 16:33N 56°11' E 012°22'1413.5
2014-Oct-14 15:33N 56°24' E 012°16'1413.5
2014-Oct-14 14:33N 56°37' E 012°10'1313.4
2014-Oct-14 13:33N 56°50' E 012°03'1413.5
2014-Oct-14 12:33N 57°03' E 011°57'1413.6
2014-Oct-14 11:30N 57°17' E 011°49'1313.5
2014-Oct-14 10:33N 57°29' E 011°41'1111.1
2014-Oct-14 09:33N 57°40' E 011°46'  

Dump ship's entire track history